Aérodrome :
LOGIN :

S'inscrire | Disclaimer

   EN    FR    IT 

 










Légende :    VFR   VFR Marginal   IFR   IFR Intensif   IFR Très Intensif
Visi : 
Plafond : 
>= 8 km
>= 3000ft
5 à 8 km
1000 à 3000 ft
1500m à 5 km
500 à 1000 ft
800 à 1500m
200 à 500 ft
< 800m
< 200 ft
Symboles :   Orages  Brouillard  Fortes neiges  Fortes précipitations  Vent > 20 kt
SIGMETs :   Divers  Orages  Givrage  Turbulence  Onde Orograph.  Cendres Volcan.







- Altitude de l'aérodrome : 768 ft
- Code IATA : MXP


LIMC - Milano Malpensa

DERNIER METAR :
  • 231520Z 13004KT 110V170 CAVOK 09/01 Q1023 NOSIG

METARs EXPIRÉS :
  • 231450Z 14006KT CAVOK 09/01 Q1023 NOSIG
  • 231420Z 13006KT CAVOK 09/00 Q1022 NOSIG
  • 231350Z 14004KT 110V170 CAVOK 10/01 Q1022 NOSIG
  • 231320Z 17004KT CAVOK 09/01 Q1022 NOSIG
  • 231250Z 16004KT 130V190 7000 NSC 09/02 Q1022 NOSIG

TAF TAF LIMC
Valide du 23 à 12h jusqu'au 24 à 18h UTC


231100Z 2312/2418 VRB05KT CAVOK
TEMPO 2400/2408 3000 BCFG
Pas de NOTAMs connus pour ce terrain.
1 SIGMET publié pour la FIR Milano (LIMM) :
 
Turbulence forte
LIMM SIGMET 5 VALID 231430/231830 LIIP
LIMM MILANO FIR SEV TURB FCST E OF LINE N4653 E01225 - N4326 E01306 ABV FL230 MOV E WKN=



MET'MAP, la Météo Aéronautique d'un coup d'oeil ! - Copyright ORBIFLY Décembre 2007 - Disclaimer

ORBIFLY MET'MAP TEAM :

Programmation & Développement : Alexandra Zaïnal
Conception & Développement : Baudouin d'Aumeries
Co-Programmation & Développement : Marc-Olivier Méhu
Soutien technique & logistique : Manuel Goepfert

Contact : metmap@orbifly.com




SOURCES & CREDITS :

   NOAA